createdAt,value
2024-01-06T00:00:19.000Z,276.27
2024-01-06T00:02:25.000Z,276.27
2024-01-06T00:03:52.000Z,276.34
2024-01-06T00:05:58.000Z,276.34
2024-01-06T00:07:25.000Z,276.34
2024-01-06T00:09:31.000Z,276.34
2024-01-06T00:10:58.000Z,276.27
2024-01-06T00:13:04.000Z,276.21
2024-01-06T00:14:30.000Z,276.21
2024-01-06T00:16:37.000Z,276.27
2024-01-06T00:18:03.000Z,276.27
2024-01-06T00:20:10.000Z,276.34
2024-01-06T00:21:37.000Z,276.46
2024-01-06T00:23:43.000Z,276.59
2024-01-06T00:25:10.000Z,276.65
2024-01-06T00:27:16.000Z,276.77
2024-01-06T00:28:42.000Z,276.77
2024-01-06T00:30:49.000Z,276.84
2024-01-06T00:32:15.000Z,276.77
2024-01-06T00:34:22.000Z,276.84
2024-01-06T00:37:07.000Z,276.84
2024-01-06T00:38:34.000Z,276.84
2024-01-06T00:40:40.000Z,276.84
2024-01-06T00:42:06.000Z,276.84
2024-01-06T00:44:13.000Z,276.77
2024-01-06T00:45:39.000Z,276.71
2024-01-06T00:47:45.000Z,276.71
2024-01-06T00:49:12.000Z,276.77
2024-01-06T00:51:19.000Z,276.71
2024-01-06T00:52:45.000Z,276.71
2024-01-06T00:54:52.000Z,276.71
2024-01-06T00:56:18.000Z,276.71
2024-01-06T00:58:25.000Z,276.65
2024-01-06T00:59:51.000Z,276.65
2024-01-06T01:01:57.000Z,276.65
2024-01-06T01:03:24.000Z,276.65
2024-01-06T01:05:30.000Z,276.59
2024-01-06T01:06:56.000Z,276.59
2024-01-06T01:09:03.000Z,276.59
2024-01-06T01:10:29.000Z,276.52
2024-01-06T01:12:35.000Z,276.52
2024-01-06T01:15:21.000Z,276.52
2024-01-06T01:16:47.000Z,276.52
2024-01-06T01:18:54.000Z,276.52
2024-01-06T01:20:20.000Z,276.52
2024-01-06T01:22:27.000Z,276.52
2024-01-06T01:23:53.000Z,276.59
2024-01-06T01:25:59.000Z,276.52
2024-01-06T01:27:26.000Z,276.4
2024-01-06T01:29:32.000Z,276.4
2024-01-06T01:30:59.000Z,276.4
2024-01-06T01:33:05.000Z,276.4
2024-01-06T01:34:32.000Z,276.4
2024-01-06T01:36:38.000Z,276.4
2024-01-06T01:38:05.000Z,276.4
2024-01-06T01:40:11.000Z,276.4
2024-01-06T01:41:37.000Z,276.4
2024-01-06T01:43:44.000Z,276.4
2024-01-06T01:45:10.000Z,276.4
2024-01-06T01:47:17.000Z,276.4
2024-01-06T01:48:44.000Z,276.4
2024-01-06T01:50:55.000Z,276.4
2024-01-06T01:53:40.000Z,276.46
2024-01-06T01:55:07.000Z,276.52
2024-01-06T01:57:13.000Z,276.52
2024-01-06T01:58:39.000Z,276.65
2024-01-06T02:00:46.000Z,276.65
2024-01-06T02:02:12.000Z,276.71
2024-01-06T02:04:18.000Z,276.71
2024-01-06T02:05:45.000Z,276.71
2024-01-06T02:07:51.000Z,276.77
2024-01-06T02:09:18.000Z,276.84
2024-01-06T02:11:24.000Z,276.84
2024-01-06T02:12:50.000Z,276.84
2024-01-06T02:14:57.000Z,276.84
2024-01-06T02:16:23.000Z,276.84
2024-01-06T02:18:30.000Z,276.84
2024-01-06T02:19:56.000Z,276.77
2024-01-06T02:22:02.000Z,276.71
2024-01-06T02:23:29.000Z,276.71
2024-01-06T02:25:35.000Z,276.71
2024-01-06T02:27:02.000Z,276.77
2024-01-06T02:29:08.000Z,276.77
2024-01-06T02:31:53.000Z,276.71
2024-01-06T02:33:20.000Z,276.77
2024-01-06T02:35:26.000Z,276.84
2024-01-06T02:36:53.000Z,276.9
2024-01-06T02:38:59.000Z,276.96
2024-01-06T02:40:25.000Z,276.96
2024-01-06T02:42:32.000Z,277.02
2024-01-06T02:43:58.000Z,277.02
2024-01-06T02:46:05.000Z,277.09
2024-01-06T02:47:31.000Z,277.09
2024-01-06T02:49:38.000Z,277.09
2024-01-06T02:51:04.000Z,277.09
2024-01-06T02:53:11.000Z,277.09
2024-01-06T02:54:37.000Z,277.09
2024-01-06T02:56:43.000Z,277.09
2024-01-06T02:58:10.000Z,277.09
2024-01-06T03:00:16.000Z,277.09
2024-01-06T03:01:43.000Z,277.09
2024-01-06T03:03:50.000Z,277.09
2024-01-06T03:05:17.000Z,277.09
2024-01-06T03:07:23.000Z,277.09
2024-01-06T03:10:08.000Z,277.15
2024-01-06T03:11:35.000Z,277.09
2024-01-06T03:13:41.000Z,277.09
2024-01-06T03:15:07.000Z,277.09
2024-01-06T03:17:14.000Z,277.09
2024-01-06T03:18:40.000Z,277.15
2024-01-06T03:20:47.000Z,277.15
2024-01-06T03:22:13.000Z,277.09
2024-01-06T03:24:19.000Z,277.15
2024-01-06T03:25:46.000Z,277.15
2024-01-06T03:27:52.000Z,277.09
2024-01-06T03:29:18.000Z,277.09
2024-01-06T03:31:24.000Z,277.09
2024-01-06T03:32:51.000Z,277.02
2024-01-06T03:34:57.000Z,277.02
2024-01-06T03:36:24.000Z,277.02
2024-01-06T03:38:30.000Z,277.02
2024-01-06T03:39:57.000Z,277.09
2024-01-06T03:42:03.000Z,276.96
2024-01-06T03:43:29.000Z,277.02
2024-01-06T03:45:35.000Z,276.96
2024-01-06T03:48:21.000Z,277.02
2024-01-06T03:49:48.000Z,276.96
2024-01-06T03:51:54.000Z,276.96
2024-01-06T03:53:20.000Z,276.9
2024-01-06T03:55:31.000Z,276.96
2024-01-06T03:56:57.000Z,276.96
2024-01-06T03:59:04.000Z,276.96
2024-01-06T04:00:30.000Z,276.96
2024-01-06T04:02:36.000Z,277.02
2024-01-06T04:04:03.000Z,277.02
2024-01-06T04:06:10.000Z,277.09
2024-01-06T04:07:36.000Z,277.09
2024-01-06T04:09:43.000Z,277.09
2024-01-06T04:11:09.000Z,277.09
2024-01-06T04:13:16.000Z,277.09
2024-01-06T04:14:42.000Z,277.09
2024-01-06T04:16:48.000Z,277.09
2024-01-06T04:18:15.000Z,277.09
2024-01-06T04:20:21.000Z,277.09
2024-01-06T04:21:48.000Z,277.09
2024-01-06T04:23:54.000Z,277.09
2024-01-06T04:26:39.000Z,277.09
2024-01-06T04:28:06.000Z,277.09
2024-01-06T04:30:12.000Z,277.09
2024-01-06T04:31:39.000Z,277.09
2024-01-06T04:33:45.000Z,277.09
2024-01-06T04:35:12.000Z,277.02
2024-01-06T04:37:18.000Z,277.02
2024-01-06T04:38:44.000Z,277.02
2024-01-06T04:40:50.000Z,277.02
2024-01-06T04:42:17.000Z,277.02
2024-01-06T04:44:23.000Z,277.02
2024-01-06T04:45:50.000Z,276.96
2024-01-06T04:47:56.000Z,276.96
2024-01-06T04:49:23.000Z,276.96
2024-01-06T04:51:30.000Z,277.02
2024-01-06T04:52:57.000Z,277.02
2024-01-06T04:55:03.000Z,277.02
2024-01-06T04:56:29.000Z,277.02
2024-01-06T04:58:40.000Z,277.02
2024-01-06T05:00:07.000Z,277.02
2024-01-06T05:02:13.000Z,276.96
2024-01-06T05:04:59.000Z,277.02
2024-01-06T05:06:25.000Z,277.09
2024-01-06T05:08:31.000Z,277.09
2024-01-06T05:09:58.000Z,277.09
2024-01-06T05:12:04.000Z,277.09
2024-01-06T05:13:30.000Z,277.09
2024-01-06T05:15:37.000Z,277.09
2024-01-06T05:17:03.000Z,277.09
2024-01-06T05:19:09.000Z,277.02
2024-01-06T05:20:36.000Z,277.09
2024-01-06T05:22:42.000Z,277.09
2024-01-06T05:24:08.000Z,277.09
2024-01-06T05:26:15.000Z,277.09
2024-01-06T05:27:41.000Z,277.02
2024-01-06T05:29:48.000Z,277.02
2024-01-06T05:31:15.000Z,277.02
2024-01-06T05:33:21.000Z,277.02
2024-01-06T05:34:48.000Z,277.02
2024-01-06T05:36:54.000Z,277.02
2024-01-06T05:38:21.000Z,276.96
2024-01-06T05:40:27.000Z,276.96
2024-01-06T05:43:12.000Z,276.96
2024-01-06T05:44:38.000Z,276.96
2024-01-06T05:46:45.000Z,276.96
2024-01-06T05:48:11.000Z,276.96
2024-01-06T05:50:18.000Z,276.96
2024-01-06T05:51:44.000Z,276.96
2024-01-06T05:53:51.000Z,276.96
2024-01-06T05:55:17.000Z,276.9
2024-01-06T05:57:23.000Z,276.9
2024-01-06T05:58:50.000Z,276.9
2024-01-06T06:00:56.000Z,276.9
2024-01-06T06:02:23.000Z,276.84
2024-01-06T06:04:29.000Z,276.77
2024-01-06T06:05:56.000Z,276.84
2024-01-06T06:08:03.000Z,276.77
2024-01-06T06:09:29.000Z,276.84
2024-01-06T06:11:35.000Z,276.77
2024-01-06T06:13:02.000Z,276.77
2024-01-06T06:15:08.000Z,276.77
2024-01-06T06:16:35.000Z,276.77
2024-01-06T06:18:41.000Z,276.71
2024-01-06T06:21:27.000Z,276.71
2024-01-06T06:22:53.000Z,276.71
2024-01-06T06:24:59.000Z,276.71
2024-01-06T06:26:26.000Z,276.71
2024-01-06T06:28:32.000Z,276.71
2024-01-06T06:29:59.000Z,276.71
2024-01-06T06:32:05.000Z,276.77
2024-01-06T06:33:31.000Z,276.77
2024-01-06T06:35:38.000Z,276.77
2024-01-06T06:37:05.000Z,276.77
2024-01-06T06:39:11.000Z,276.77
2024-01-06T06:40:38.000Z,276.77
2024-01-06T06:42:44.000Z,276.77
2024-01-06T06:44:11.000Z,276.77
2024-01-06T06:46:17.000Z,276.77
2024-01-06T06:47:44.000Z,276.77
2024-01-06T06:49:50.000Z,276.71
2024-01-06T06:51:16.000Z,276.71
2024-01-06T06:53:23.000Z,276.77
2024-01-06T06:54:50.000Z,276.77
2024-01-06T06:56:56.000Z,276.77
2024-01-06T06:59:42.000Z,276.77
2024-01-06T07:01:08.000Z,276.77
2024-01-06T07:03:15.000Z,276.77
2024-01-06T07:04:41.000Z,276.77
2024-01-06T07:06:48.000Z,276.77
2024-01-06T07:08:14.000Z,276.77
2024-01-06T07:10:21.000Z,276.77
2024-01-06T07:11:47.000Z,276.77
2024-01-06T07:13:53.000Z,276.77
2024-01-06T07:15:20.000Z,276.77
2024-01-06T07:17:26.000Z,276.77
2024-01-06T07:18:53.000Z,276.77
2024-01-06T07:20:59.000Z,276.77
2024-01-06T07:22:26.000Z,276.77
2024-01-06T07:24:32.000Z,276.77
2024-01-06T07:25:59.000Z,276.77
2024-01-06T07:28:05.000Z,276.71
2024-01-06T07:29:32.000Z,276.77
2024-01-06T07:31:38.000Z,276.71
2024-01-06T07:33:05.000Z,276.71
2024-01-06T07:35:11.000Z,276.71
2024-01-06T07:37:57.000Z,276.71
2024-01-06T07:39:23.000Z,276.71
2024-01-06T07:41:29.000Z,276.71
2024-01-06T07:42:56.000Z,276.71
2024-01-06T07:45:02.000Z,276.77
2024-01-06T07:46:28.000Z,276.77
2024-01-06T07:48:35.000Z,276.84
2024-01-06T07:50:01.000Z,276.84
2024-01-06T07:52:08.000Z,276.84
2024-01-06T07:53:34.000Z,276.84
2024-01-06T07:55:40.000Z,276.84
2024-01-06T07:57:07.000Z,276.84
2024-01-06T07:59:13.000Z,276.84
2024-01-06T08:00:40.000Z,276.84
2024-01-06T08:02:46.000Z,276.84
2024-01-06T08:04:12.000Z,276.84
2024-01-06T08:06:19.000Z,276.84
2024-01-06T08:07:46.000Z,276.84
2024-01-06T08:09:52.000Z,276.84
2024-01-06T08:11:19.000Z,276.9
2024-01-06T08:13:25.000Z,276.9
2024-01-06T08:16:10.000Z,276.9
2024-01-06T08:17:36.000Z,276.9
2024-01-06T08:19:43.000Z,276.96
2024-01-06T08:21:09.000Z,276.96
2024-01-06T08:23:16.000Z,276.9
2024-01-06T08:24:42.000Z,276.9
2024-01-06T08:26:49.000Z,276.96
2024-01-06T08:28:15.000Z,276.96
2024-01-06T08:30:21.000Z,276.96
2024-01-06T08:31:48.000Z,276.96
2024-01-06T08:33:55.000Z,276.96
2024-01-06T08:35:22.000Z,276.96
2024-01-06T08:37:28.000Z,276.96
2024-01-06T08:38:55.000Z,277.02
2024-01-06T08:41:01.000Z,277.02
2024-01-06T08:42:28.000Z,277.02
2024-01-06T08:44:36.000Z,277.02
2024-01-06T08:46:02.000Z,276.96
2024-01-06T08:48:09.000Z,276.96
2024-01-06T08:49:35.000Z,276.96
2024-01-06T08:51:42.000Z,277.02
2024-01-06T08:54:27.000Z,277.02
2024-01-06T08:55:54.000Z,277.02
2024-01-06T08:58:00.000Z,277.02
2024-01-06T08:59:27.000Z,277.09
2024-01-06T09:01:33.000Z,277.09
2024-01-06T09:03:00.000Z,277.09
2024-01-06T09:05:06.000Z,277.09
2024-01-06T09:06:32.000Z,277.15
2024-01-06T09:08:39.000Z,277.15
2024-01-06T09:10:05.000Z,277.15
2024-01-06T09:12:11.000Z,277.21
2024-01-06T09:13:38.000Z,277.21
2024-01-06T09:15:44.000Z,277.27
2024-01-06T09:17:10.000Z,277.34
2024-01-06T09:19:17.000Z,277.4
2024-01-06T09:20:44.000Z,277.46
2024-01-06T09:22:50.000Z,277.4
2024-01-06T09:24:16.000Z,277.46
2024-01-06T09:26:23.000Z,277.46
2024-01-06T09:27:49.000Z,277.46
2024-01-06T09:29:55.000Z,277.46
2024-01-06T09:32:40.000Z,277.52
2024-01-06T09:34:07.000Z,277.52
2024-01-06T09:36:14.000Z,277.52
2024-01-06T09:37:40.000Z,277.52
2024-01-06T09:39:46.000Z,277.52
2024-01-06T09:41:13.000Z,277.59
2024-01-06T09:43:20.000Z,277.59
2024-01-06T09:44:46.000Z,277.65
2024-01-06T09:46:52.000Z,277.59
2024-01-06T09:48:19.000Z,277.65
2024-01-06T09:50:25.000Z,277.59
2024-01-06T09:51:52.000Z,277.65
2024-01-06T09:53:58.000Z,277.65
2024-01-06T09:55:25.000Z,277.59
2024-01-06T09:57:31.000Z,277.65
2024-01-06T09:58:57.000Z,277.59
2024-01-06T10:01:04.000Z,277.59
2024-01-06T10:02:30.000Z,277.65
2024-01-06T10:04:36.000Z,277.59
2024-01-06T10:06:03.000Z,277.59
2024-01-06T10:08:09.000Z,277.59
2024-01-06T10:10:55.000Z,277.65
2024-01-06T10:12:21.000Z,277.65
2024-01-06T10:14:28.000Z,277.65
2024-01-06T10:15:54.000Z,277.59
2024-01-06T10:18:01.000Z,277.65
2024-01-06T10:19:27.000Z,277.65
2024-01-06T10:21:34.000Z,277.59
2024-01-06T10:23:00.000Z,277.59
2024-01-06T10:25:06.000Z,277.59
2024-01-06T10:26:33.000Z,277.65
2024-01-06T10:28:39.000Z,277.65
2024-01-06T10:30:06.000Z,277.65
2024-01-06T10:32:12.000Z,277.71
2024-01-06T10:33:38.000Z,277.71
2024-01-06T10:35:45.000Z,277.71
2024-01-06T10:37:11.000Z,277.71
2024-01-06T10:39:18.000Z,277.71
2024-01-06T10:40:44.000Z,277.71
2024-01-06T10:42:50.000Z,277.77
2024-01-06T10:44:17.000Z,277.77
2024-01-06T10:46:23.000Z,277.77
2024-01-06T10:49:08.000Z,277.77
2024-01-06T10:50:35.000Z,277.77
2024-01-06T10:52:42.000Z,277.77
2024-01-06T10:54:08.000Z,277.84
2024-01-06T10:56:15.000Z,277.84
2024-01-06T10:57:41.000Z,277.84
2024-01-06T10:59:47.000Z,277.84
2024-01-06T11:01:14.000Z,277.84
2024-01-06T11:03:25.000Z,277.84
2024-01-06T11:04:51.000Z,277.84
2024-01-06T11:06:58.000Z,277.9
2024-01-06T11:08:24.000Z,277.9
2024-01-06T11:10:30.000Z,277.9
2024-01-06T11:11:57.000Z,277.9
2024-01-06T11:14:03.000Z,277.96
2024-01-06T11:15:29.000Z,277.96
2024-01-06T11:17:36.000Z,277.96
2024-01-06T11:19:08.000Z,278.02
2024-01-06T11:21:15.000Z,278.02
2024-01-06T11:22:41.000Z,278.02
2024-01-06T11:24:48.000Z,278.09
2024-01-06T11:27:33.000Z,278.09
2024-01-06T11:28:59.000Z,278.15
2024-01-06T11:31:06.000Z,278.15
2024-01-06T11:32:32.000Z,278.15
2024-01-06T11:34:39.000Z,278.15
2024-01-06T11:36:06.000Z,278.21
2024-01-06T11:38:12.000Z,278.15
2024-01-06T11:39:38.000Z,278.15
2024-01-06T11:41:44.000Z,278.15
2024-01-06T11:43:11.000Z,278.21
2024-01-06T11:45:17.000Z,278.21
2024-01-06T11:46:44.000Z,278.21
2024-01-06T11:48:50.000Z,278.21
2024-01-06T11:50:16.000Z,278.27
2024-01-06T11:52:23.000Z,278.27
2024-01-06T11:53:49.000Z,278.27
2024-01-06T11:55:55.000Z,278.27
2024-01-06T11:57:22.000Z,278.27
2024-01-06T11:59:28.000Z,278.27
2024-01-06T12:00:54.000Z,278.27
2024-01-06T12:03:00.000Z,278.27
2024-01-06T12:05:46.000Z,278.27
2024-01-06T12:07:12.000Z,278.34
2024-01-06T12:09:18.000Z,278.27
2024-01-06T12:10:45.000Z,278.27
2024-01-06T12:12:52.000Z,278.34
2024-01-06T12:14:18.000Z,278.34
2024-01-06T12:16:24.000Z,278.34
2024-01-06T12:17:51.000Z,278.34
2024-01-06T12:19:57.000Z,278.34
2024-01-06T12:21:24.000Z,278.34
2024-01-06T12:23:30.000Z,278.34
2024-01-06T12:24:57.000Z,278.34
2024-01-06T12:27:03.000Z,278.34
2024-01-06T12:28:29.000Z,278.34
2024-01-06T12:30:35.000Z,278.34
2024-01-06T12:32:02.000Z,278.4
2024-01-06T12:34:08.000Z,278.4
2024-01-06T12:35:35.000Z,278.34
2024-01-06T12:37:41.000Z,278.34
2024-01-06T12:39:08.000Z,278.34
2024-01-06T12:41:14.000Z,278.34
2024-01-06T12:43:59.000Z,278.34
2024-01-06T12:45:26.000Z,278.4
2024-01-06T12:47:32.000Z,278.4
2024-01-06T12:48:59.000Z,278.4
2024-01-06T12:51:06.000Z,278.4
2024-01-06T12:52:32.000Z,278.4
2024-01-06T12:54:38.000Z,278.4
2024-01-06T12:56:07.000Z,278.4
2024-01-06T12:58:14.000Z,278.4
2024-01-06T12:59:40.000Z,278.4
2024-01-06T13:01:46.000Z,278.4
2024-01-06T13:03:13.000Z,278.4
2024-01-06T13:05:19.000Z,278.4
2024-01-06T13:06:46.000Z,278.4
2024-01-06T13:08:52.000Z,278.4
2024-01-06T13:10:19.000Z,278.4
2024-01-06T13:12:25.000Z,278.4
2024-01-06T13:13:52.000Z,278.4
2024-01-06T13:15:58.000Z,278.4
2024-01-06T13:17:24.000Z,278.4
2024-01-06T13:19:31.000Z,278.4
2024-01-06T13:22:16.000Z,278.4
2024-01-06T13:23:43.000Z,278.4
2024-01-06T13:25:49.000Z,278.4
2024-01-06T13:27:16.000Z,278.4
2024-01-06T13:29:22.000Z,278.34
2024-01-06T13:30:48.000Z,278.4
2024-01-06T13:32:54.000Z,278.34
2024-01-06T13:34:21.000Z,278.34
2024-01-06T13:36:28.000Z,278.4
2024-01-06T13:37:54.000Z,278.4
2024-01-06T13:40:01.000Z,278.34
2024-01-06T13:41:27.000Z,278.34
2024-01-06T13:43:34.000Z,278.34
2024-01-06T13:45:00.000Z,278.34
2024-01-06T13:47:06.000Z,278.34
2024-01-06T13:48:33.000Z,278.34
2024-01-06T13:50:39.000Z,278.34
2024-01-06T13:52:06.000Z,278.34
2024-01-06T13:54:12.000Z,278.34
2024-01-06T13:55:42.000Z,278.4
2024-01-06T13:57:49.000Z,278.4
2024-01-06T14:00:34.000Z,278.34
2024-01-06T14:02:01.000Z,278.34
2024-01-06T14:04:07.000Z,278.34
2024-01-06T14:05:34.000Z,278.34
2024-01-06T14:07:40.000Z,278.34
2024-01-06T14:09:07.000Z,278.34
2024-01-06T14:11:13.000Z,278.34
2024-01-06T14:12:40.000Z,278.34
2024-01-06T14:14:46.000Z,278.27
2024-01-06T14:16:13.000Z,278.34
2024-01-06T14:18:19.000Z,278.34
2024-01-06T14:19:46.000Z,278.27
2024-01-06T14:21:52.000Z,278.27
2024-01-06T14:23:19.000Z,278.27
2024-01-06T14:25:25.000Z,278.27
2024-01-06T14:26:52.000Z,278.27
2024-01-06T14:28:58.000Z,278.27
2024-01-06T14:30:24.000Z,278.27
2024-01-06T14:32:31.000Z,278.27
2024-01-06T14:33:57.000Z,278.27
2024-01-06T14:36:05.000Z,278.21
2024-01-06T14:38:50.000Z,278.21
2024-01-06T14:40:17.000Z,278.21
2024-01-06T14:42:23.000Z,278.15
2024-01-06T14:43:50.000Z,278.15
2024-01-06T14:45:56.000Z,278.15
2024-01-06T14:47:22.000Z,278.15
2024-01-06T14:49:29.000Z,278.15
2024-01-06T14:50:55.000Z,278.09
2024-01-06T14:53:02.000Z,278.02
2024-01-06T14:54:28.000Z,278.09
2024-01-06T14:56:34.000Z,278.09
2024-01-06T14:58:01.000Z,278.09
2024-01-06T15:00:07.000Z,278.09
2024-01-06T15:01:34.000Z,278.09
2024-01-06T15:03:40.000Z,278.09
2024-01-06T15:05:07.000Z,278.02
2024-01-06T15:07:13.000Z,278.02
2024-01-06T15:08:40.000Z,278.02
2024-01-06T15:10:46.000Z,278.02
2024-01-06T15:12:12.000Z,278.02
2024-01-06T15:14:19.000Z,278.02
2024-01-06T15:17:04.000Z,278.02
2024-01-06T15:18:30.000Z,278.02
2024-01-06T15:20:37.000Z,278.02
2024-01-06T15:22:03.000Z,278.02
2024-01-06T15:24:10.000Z,278.02
2024-01-06T15:25:36.000Z,278.02
2024-01-06T15:27:43.000Z,278.02
2024-01-06T15:29:09.000Z,277.96
2024-01-06T15:31:15.000Z,277.96
2024-01-06T15:32:42.000Z,277.96
2024-01-06T15:34:48.000Z,277.9
2024-01-06T15:36:15.000Z,277.96
2024-01-06T15:38:21.000Z,277.9
2024-01-06T15:39:48.000Z,277.9
2024-01-06T15:41:54.000Z,277.9
2024-01-06T15:43:21.000Z,277.9
2024-01-06T15:45:27.000Z,277.84
2024-01-06T15:46:53.000Z,277.84
2024-01-06T15:49:00.000Z,277.84
2024-01-06T15:50:26.000Z,277.77
2024-01-06T15:52:33.000Z,277.77
2024-01-06T15:55:18.000Z,277.77
2024-01-06T15:56:44.000Z,277.84
2024-01-06T15:58:51.000Z,277.77
2024-01-06T16:00:17.000Z,277.84
2024-01-06T16:02:23.000Z,277.84
2024-01-06T16:03:50.000Z,277.84
2024-01-06T16:05:57.000Z,277.77
2024-01-06T16:07:23.000Z,277.71
2024-01-06T16:09:29.000Z,277.71
2024-01-06T16:10:56.000Z,277.71
2024-01-06T16:13:02.000Z,277.71
2024-01-06T16:14:29.000Z,277.71
2024-01-06T16:16:39.000Z,277.71
2024-01-06T16:18:05.000Z,277.65
2024-01-06T16:20:12.000Z,277.71
2024-01-06T16:21:38.000Z,277.71
2024-01-06T16:23:44.000Z,277.71
2024-01-06T16:25:11.000Z,277.65
2024-01-06T16:27:17.000Z,277.65
2024-01-06T16:28:44.000Z,277.65
2024-01-06T16:30:50.000Z,277.65
2024-01-06T16:33:35.000Z,277.65
2024-01-06T16:35:02.000Z,277.65
2024-01-06T16:37:08.000Z,277.71
2024-01-06T16:38:34.000Z,277.65
2024-01-06T16:40:40.000Z,277.65
2024-01-06T16:42:07.000Z,277.65
2024-01-06T16:44:13.000Z,277.65
2024-01-06T16:45:40.000Z,277.65
2024-01-06T16:47:46.000Z,277.59
2024-01-06T16:49:13.000Z,277.65
2024-01-06T16:51:19.000Z,277.65
2024-01-06T16:52:46.000Z,277.65
2024-01-06T16:54:52.000Z,277.59
2024-01-06T16:56:19.000Z,277.65
2024-01-06T16:58:25.000Z,277.65
2024-01-06T16:59:51.000Z,277.65
2024-01-06T17:01:58.000Z,277.65
2024-01-06T17:03:25.000Z,277.65
2024-01-06T17:05:31.000Z,277.65
2024-01-06T17:06:57.000Z,277.65
2024-01-06T17:09:04.000Z,277.65
2024-01-06T17:11:49.000Z,277.65
2024-01-06T17:13:16.000Z,277.65
2024-01-06T17:15:22.000Z,277.65
2024-01-06T17:16:49.000Z,277.65
2024-01-06T17:18:55.000Z,277.65
2024-01-06T17:20:22.000Z,277.59
2024-01-06T17:22:29.000Z,277.59
2024-01-06T17:23:56.000Z,277.59
2024-01-06T17:26:02.000Z,277.59
2024-01-06T17:27:28.000Z,277.59
2024-01-06T17:29:34.000Z,277.59
2024-01-06T17:31:01.000Z,277.59
2024-01-06T17:33:07.000Z,277.59
2024-01-06T17:34:33.000Z,277.59
2024-01-06T17:36:40.000Z,277.59
2024-01-06T17:38:06.000Z,277.59
2024-01-06T17:40:12.000Z,277.59
2024-01-06T17:43:46.000Z,277.59
2024-01-06T17:45:13.000Z,277.59
2024-01-06T17:47:19.000Z,277.59
2024-01-06T17:50:05.000Z,277.65
2024-01-06T17:51:31.000Z,277.65
2024-01-06T17:53:37.000Z,277.59
2024-01-06T17:55:04.000Z,277.65
2024-01-06T17:57:10.000Z,277.59
2024-01-06T17:58:37.000Z,277.59
2024-01-06T18:00:43.000Z,277.59
2024-01-06T18:02:10.000Z,277.59
2024-01-06T18:04:16.000Z,277.59
2024-01-06T18:05:42.000Z,277.59
2024-01-06T18:07:49.000Z,277.59
2024-01-06T18:09:16.000Z,277.59
2024-01-06T18:11:22.000Z,277.59
2024-01-06T18:12:49.000Z,277.65
2024-01-06T18:14:55.000Z,277.59
2024-01-06T18:16:21.000Z,277.59
2024-01-06T18:18:28.000Z,277.59
2024-01-06T18:19:54.000Z,277.59
2024-01-06T18:22:01.000Z,277.59
2024-01-06T18:23:27.000Z,277.59
2024-01-06T18:25:33.000Z,277.59
2024-01-06T18:28:18.000Z,277.52
2024-01-06T18:29:45.000Z,277.59
2024-01-06T18:31:51.000Z,277.52
2024-01-06T18:33:18.000Z,277.52
2024-01-06T18:35:24.000Z,277.46
2024-01-06T18:36:51.000Z,277.46
2024-01-06T18:38:57.000Z,277.46
2024-01-06T18:40:23.000Z,277.52
2024-01-06T18:42:34.000Z,277.52
2024-01-06T18:44:01.000Z,277.52
2024-01-06T18:46:07.000Z,277.46
2024-01-06T18:47:34.000Z,277.46
2024-01-06T18:49:40.000Z,277.46
2024-01-06T18:51:07.000Z,277.46
2024-01-06T18:53:13.000Z,277.46
2024-01-06T18:54:40.000Z,277.46
2024-01-06T18:56:46.000Z,277.46
2024-01-06T18:58:13.000Z,277.4
2024-01-06T19:00:19.000Z,277.4
2024-01-06T19:01:46.000Z,277.46
2024-01-06T19:03:52.000Z,277.46
2024-01-06T19:06:37.000Z,277.4
2024-01-06T19:08:04.000Z,277.4
2024-01-06T19:10:10.000Z,277.46
2024-01-06T19:11:36.000Z,277.4
2024-01-06T19:13:42.000Z,277.4
2024-01-06T19:15:09.000Z,277.4
2024-01-06T19:17:15.000Z,277.34
2024-01-06T19:18:42.000Z,277.34
2024-01-06T19:20:48.000Z,277.34
2024-01-06T19:22:14.000Z,277.34
2024-01-06T19:24:21.000Z,277.4
2024-01-06T19:26:00.000Z,277.4
2024-01-06T19:28:06.000Z,277.4
2024-01-06T19:29:32.000Z,277.34
2024-01-06T19:31:39.000Z,277.34
2024-01-06T19:33:06.000Z,277.34
2024-01-06T19:35:12.000Z,277.34
2024-01-06T19:36:38.000Z,277.4
2024-01-06T19:38:45.000Z,277.4
2024-01-06T19:40:11.000Z,277.4
2024-01-06T19:42:18.000Z,277.34
2024-01-06T19:45:03.000Z,277.4
2024-01-06T19:46:30.000Z,277.4
2024-01-06T19:48:36.000Z,277.4
2024-01-06T19:50:03.000Z,277.34
2024-01-06T19:52:09.000Z,277.34
2024-01-06T19:53:35.000Z,277.4
2024-01-06T19:55:41.000Z,277.34
2024-01-06T19:57:08.000Z,277.4
2024-01-06T19:59:14.000Z,277.4
2024-01-06T20:00:41.000Z,277.4
2024-01-06T20:02:47.000Z,277.4
2024-01-06T20:04:14.000Z,277.34
2024-01-06T20:06:20.000Z,277.34
2024-01-06T20:07:47.000Z,277.4
2024-01-06T20:09:53.000Z,277.34
2024-01-06T20:11:19.000Z,277.34
2024-01-06T20:13:25.000Z,277.4
2024-01-06T20:14:52.000Z,277.34
2024-01-06T20:16:58.000Z,277.4
2024-01-06T20:18:25.000Z,277.4
2024-01-06T20:20:32.000Z,277.34
2024-01-06T20:23:17.000Z,277.34
2024-01-06T20:24:44.000Z,277.34
2024-01-06T20:26:50.000Z,277.34
2024-01-06T20:28:22.000Z,277.34
2024-01-06T20:30:28.000Z,277.34
2024-01-06T20:31:55.000Z,277.27
2024-01-06T20:34:02.000Z,277.21
2024-01-06T20:35:28.000Z,277.21
2024-01-06T20:37:35.000Z,277.21
2024-01-06T20:39:01.000Z,277.21
2024-01-06T20:41:07.000Z,277.21
2024-01-06T20:42:34.000Z,277.21
2024-01-06T20:44:41.000Z,277.21
2024-01-06T20:46:07.000Z,277.15
2024-01-06T20:48:13.000Z,277.15
2024-01-06T20:49:40.000Z,277.15
2024-01-06T20:51:46.000Z,277.15
2024-01-06T20:53:13.000Z,277.15
2024-01-06T20:55:19.000Z,277.15
2024-01-06T20:56:46.000Z,277.09
2024-01-06T20:58:52.000Z,277.02
2024-01-06T21:01:38.000Z,276.9
2024-01-06T21:03:04.000Z,276.84
2024-01-06T21:05:11.000Z,276.77
2024-01-06T21:06:37.000Z,276.71
2024-01-06T21:08:44.000Z,276.77
2024-01-06T21:10:10.000Z,276.77
2024-01-06T21:12:16.000Z,276.71
2024-01-06T21:13:43.000Z,276.77
2024-01-06T21:15:49.000Z,276.77
2024-01-06T21:17:15.000Z,276.77
2024-01-06T21:19:21.000Z,276.71
2024-01-06T21:20:51.000Z,276.77
2024-01-06T21:22:57.000Z,276.71
2024-01-06T21:24:24.000Z,276.71
2024-01-06T21:26:31.000Z,276.71
2024-01-06T21:27:57.000Z,276.71
2024-01-06T21:30:03.000Z,276.65
2024-01-06T21:31:31.000Z,276.65
2024-01-06T21:33:37.000Z,276.65
2024-01-06T21:35:04.000Z,276.59
2024-01-06T21:37:10.000Z,276.59
2024-01-06T21:39:56.000Z,276.59
2024-01-06T21:41:22.000Z,276.52
2024-01-06T21:43:28.000Z,276.52
2024-01-06T21:44:55.000Z,276.52
2024-01-06T21:47:01.000Z,276.46
2024-01-06T21:48:28.000Z,276.46
2024-01-06T21:50:35.000Z,276.46
2024-01-06T21:52:01.000Z,276.46
2024-01-06T21:54:07.000Z,276.4
2024-01-06T21:55:34.000Z,276.4
2024-01-06T21:57:40.000Z,276.4
2024-01-06T21:59:07.000Z,276.4
2024-01-06T22:01:13.000Z,276.4
2024-01-06T22:02:40.000Z,276.34
2024-01-06T22:04:46.000Z,276.34
2024-01-06T22:06:13.000Z,276.27
2024-01-06T22:08:19.000Z,276.34
2024-01-06T22:09:46.000Z,276.34
2024-01-06T22:11:52.000Z,276.34
2024-01-06T22:13:19.000Z,276.27
2024-01-06T22:15:25.000Z,276.21
2024-01-06T22:18:10.000Z,276.21
2024-01-06T22:19:37.000Z,276.27
2024-01-06T22:21:43.000Z,276.27
2024-01-06T22:23:14.000Z,276.27
2024-01-06T22:25:20.000Z,276.21
2024-01-06T22:26:47.000Z,276.21
2024-01-06T22:28:53.000Z,276.21
2024-01-06T22:30:20.000Z,276.21
2024-01-06T22:32:26.000Z,276.21
2024-01-06T22:33:53.000Z,276.21
2024-01-06T22:35:59.000Z,276.21
2024-01-06T22:37:25.000Z,276.21
2024-01-06T22:39:31.000Z,276.21
2024-01-06T22:40:58.000Z,276.21
2024-01-06T22:43:05.000Z,276.21
2024-01-06T22:44:32.000Z,276.21
2024-01-06T22:46:38.000Z,276.15
2024-01-06T22:48:05.000Z,276.15
2024-01-06T22:50:11.000Z,276.15